createdAt,value
2022-10-03T00:01:37.446Z,11.02
2022-10-03T00:04:16.476Z,11.09
2022-10-03T00:07:20.597Z,11.07
2022-10-03T00:09:56.472Z,11.04
2022-10-03T00:12:47.398Z,10.99
2022-10-03T00:15:18.808Z,10.90
2022-10-03T00:17:54.509Z,10.94
2022-10-03T00:20:49.996Z,10.91
2022-10-03T00:23:24.610Z,10.90
2022-10-03T00:26:28.330Z,10.99
2022-10-03T00:29:36.858Z,10.92
2022-10-03T00:32:26.359Z,10.96
2022-10-03T00:35:24.010Z,10.96
2022-10-03T00:38:03.646Z,10.91
2022-10-03T00:41:02.463Z,10.91
2022-10-03T00:43:46.604Z,10.95
2022-10-03T00:46:50.908Z,11.01
2022-10-03T00:49:20.369Z,11.06
2022-10-03T00:52:01.743Z,11.13
2022-10-03T00:54:52.663Z,11.21
2022-10-03T00:57:56.920Z,11.29
2022-10-03T01:00:31.643Z,11.41
2022-10-03T01:02:58.247Z,11.40
2022-10-03T01:05:49.839Z,11.47
2022-10-03T01:08:55.003Z,11.54
2022-10-03T01:11:46.746Z,11.55
2022-10-03T01:14:31.798Z,11.53
2022-10-03T01:17:14.761Z,11.60
2022-10-03T01:20:09.578Z,11.66
2022-10-03T01:22:54.655Z,11.68
2022-10-03T01:25:50.527Z,11.69
2022-10-03T01:28:58.358Z,11.75
2022-10-03T01:31:43.232Z,11.78
2022-10-03T01:34:18.882Z,11.72
2022-10-03T01:37:11.653Z,11.73
2022-10-03T01:39:50.479Z,11.62
2022-10-03T01:42:36.364Z,11.59
2022-10-03T01:45:07.892Z,11.59
2022-10-03T01:47:51.567Z,11.60
2022-10-03T01:50:42.547Z,11.61
2022-10-03T01:53:24.453Z,11.67
2022-10-03T01:56:08.696Z,11.76
2022-10-03T01:58:46.529Z,11.75
2022-10-03T02:01:33.031Z,11.77
2022-10-03T02:04:24.179Z,11.80
2022-10-03T02:07:00.658Z,11.82
2022-10-03T02:09:32.560Z,11.89
2022-10-03T02:12:08.680Z,11.93
2022-10-03T02:14:35.227Z,11.99
2022-10-03T02:17:42.271Z,11.91
2022-10-03T02:20:23.734Z,11.90
2022-10-03T02:22:53.785Z,11.97
2022-10-03T02:25:35.534Z,12.00
2022-10-03T02:28:39.218Z,12.02
2022-10-03T02:31:32.278Z,11.96
2022-10-03T02:34:01.687Z,12.09
2022-10-03T02:36:48.328Z,12.10
2022-10-03T02:39:21.217Z,12.13
2022-10-03T02:42:26.381Z,12.14
2022-10-03T02:45:30.258Z,12.19
2022-10-03T02:48:31.598Z,12.19
2022-10-03T02:51:40.234Z,12.21
2022-10-03T02:54:09.871Z,12.19
2022-10-03T02:57:11.223Z,12.21
2022-10-03T03:00:17.231Z,12.27
2022-10-03T03:03:11.678Z,12.30
2022-10-03T03:05:56.837Z,12.35
2022-10-03T03:08:36.197Z,12.35
2022-10-03T03:11:30.772Z,12.26
2022-10-03T03:14:12.449Z,12.21
2022-10-03T03:16:55.083Z,12.33
2022-10-03T03:19:33.508Z,12.35
2022-10-03T03:22:25.342Z,12.34
2022-10-03T03:25:03.584Z,12.26
2022-10-03T03:27:48.912Z,12.30
2022-10-03T03:30:31.844Z,12.30
2022-10-03T03:33:13.327Z,12.24
2022-10-03T03:35:51.728Z,12.30
2022-10-03T03:38:39.742Z,12.33
2022-10-03T03:41:14.075Z,12.26
2022-10-03T03:43:44.639Z,12.33
2022-10-03T03:46:26.957Z,12.38
2022-10-03T03:48:59.969Z,12.25
2022-10-03T03:51:33.254Z,12.31
2022-10-03T03:54:26.223Z,12.29
2022-10-03T03:57:15.609Z,12.37
2022-10-03T03:59:53.965Z,12.26
2022-10-03T04:02:49.125Z,12.28
2022-10-03T04:05:51.268Z,12.32
2022-10-03T04:08:30.208Z,12.23
2022-10-03T04:11:19.335Z,12.28
2022-10-03T04:14:05.865Z,12.26
2022-10-03T04:17:22.836Z,12.36
2022-10-03T04:20:12.885Z,12.33
2022-10-03T04:23:05.508Z,12.28
2022-10-03T04:25:54.973Z,12.27
2022-10-03T04:28:44.431Z,12.30
2022-10-03T04:31:24.126Z,12.25
2022-10-03T04:34:28.277Z,12.22
2022-10-03T04:37:00.887Z,12.35
2022-10-03T04:40:04.709Z,12.24
2022-10-03T04:42:59.153Z,12.35
2022-10-03T04:45:38.145Z,12.25
2022-10-03T04:48:16.689Z,12.33
2022-10-03T04:51:04.515Z,12.23
2022-10-03T04:54:00.639Z,12.29
2022-10-03T04:56:43.556Z,12.22
2022-10-03T04:59:39.387Z,12.24
2022-10-03T05:02:31.242Z,12.19
2022-10-03T05:05:24.154Z,12.19
2022-10-03T05:07:54.973Z,12.34
2022-10-03T05:10:30.490Z,12.27
2022-10-03T05:13:05.009Z,12.16
2022-10-03T05:15:52.828Z,12.15
2022-10-03T05:18:40.035Z,11.98
2022-10-03T05:21:12.883Z,12.01
2022-10-03T05:24:05.331Z,11.92
2022-10-03T05:26:53.614Z,12.03
2022-10-03T05:29:39.709Z,11.97
2022-10-03T05:32:18.869Z,12.04
2022-10-03T05:35:03.869Z,12.03
2022-10-03T05:38:12.199Z,12.04
2022-10-03T05:41:26.158Z,12.12
2022-10-03T05:44:08.094Z,12.11
2022-10-03T05:47:00.006Z,12.11
2022-10-03T05:50:00.324Z,12.18
2022-10-03T05:52:44.508Z,12.10
2022-10-03T05:55:37.747Z,12.18
2022-10-03T05:58:42.002Z,12.17
2022-10-03T06:01:20.197Z,12.31
2022-10-03T06:04:20.988Z,12.31
2022-10-03T06:07:02.632Z,12.40
2022-10-03T06:09:42.492Z,12.32
2022-10-03T06:12:20.474Z,12.44
2022-10-03T06:15:30.152Z,12.45
2022-10-03T06:18:23.649Z,12.45
2022-10-03T06:21:15.092Z,12.55
2022-10-03T06:23:44.545Z,12.69
2022-10-03T06:26:36.233Z,12.69
2022-10-03T06:29:39.083Z,12.68
2022-10-03T06:32:23.114Z,12.72
2022-10-03T06:34:55.630Z,12.75
2022-10-03T06:37:22.008Z,12.79
2022-10-03T06:40:25.655Z,12.83
2022-10-03T06:42:58.288Z,13.01
2022-10-03T06:45:36.655Z,12.92
2022-10-03T06:48:21.582Z,13.17
2022-10-03T06:50:54.721Z,13.24
2022-10-03T06:53:33.250Z,13.20
2022-10-03T06:56:38.191Z,13.18
2022-10-03T06:59:46.785Z,13.10
2022-10-03T07:02:25.349Z,13.15
2022-10-03T07:05:03.959Z,13.12
2022-10-03T07:08:10.191Z,13.23
2022-10-03T07:10:58.263Z,13.29
2022-10-03T07:14:00.257Z,13.29
2022-10-03T07:16:46.013Z,13.18
2022-10-03T07:19:22.897Z,13.15
2022-10-03T07:22:11.161Z,13.20
2022-10-03T07:25:05.284Z,13.47
2022-10-03T07:27:50.974Z,13.45
2022-10-03T07:30:22.987Z,13.26
2022-10-03T07:32:55.454Z,13.09
2022-10-03T07:36:01.160Z,12.79
2022-10-03T07:38:58.043Z,12.82
2022-10-03T07:42:03.488Z,12.77
2022-10-03T07:44:50.012Z,12.82
2022-10-03T07:47:31.474Z,12.86
2022-10-03T07:50:15.006Z,12.90
2022-10-03T07:53:01.301Z,13.05
2022-10-03T07:55:36.492Z,13.10
2022-10-03T07:58:34.820Z,13.31
2022-10-03T08:01:07.360Z,13.16
2022-10-03T08:03:58.479Z,13.09
2022-10-03T08:06:38.086Z,13.16
2022-10-03T08:09:28.821Z,13.28
2022-10-03T08:12:03.337Z,13.22
2022-10-03T08:14:38.173Z,13.25
2022-10-03T08:17:50.206Z,13.25
2022-10-03T08:20:23.253Z,13.16
2022-10-03T08:23:22.006Z,13.25
2022-10-03T08:25:58.309Z,13.41
2022-10-03T08:28:46.293Z,13.56
2022-10-03T08:31:30.117Z,13.55
2022-10-03T08:34:27.740Z,13.77
2022-10-03T08:37:29.140Z,13.88
2022-10-03T08:40:17.314Z,14.13
2022-10-03T08:43:21.625Z,13.96
2022-10-03T08:45:57.478Z,13.83
2022-10-03T08:48:57.529Z,13.81
2022-10-03T08:51:42.610Z,13.95
2022-10-03T08:54:43.049Z,14.08
2022-10-03T08:57:26.764Z,14.02
2022-10-03T09:00:00.037Z,14.04
2022-10-03T09:03:12.568Z,14.19
2022-10-03T09:05:54.218Z,14.36
2022-10-03T09:08:45.803Z,14.52
2022-10-03T09:11:41.672Z,14.80
2022-10-03T09:14:41.949Z,14.84
2022-10-03T09:17:19.126Z,15.22
2022-10-03T09:20:16.040Z,17.35
2022-10-03T09:22:59.124Z,17.73
2022-10-03T09:25:41.269Z,17.17
2022-10-03T09:28:30.503Z,16.89
2022-10-03T09:31:15.386Z,16.48
2022-10-03T09:34:06.417Z,16.58
2022-10-03T09:36:58.083Z,17.17
2022-10-03T09:39:43.966Z,19.50
2022-10-03T09:42:39.409Z,20.73
2022-10-03T09:46:00.349Z,21.24
2022-10-03T09:48:57.822Z,21.12
2022-10-03T09:51:52.652Z,19.67
2022-10-03T09:54:44.219Z,18.25
2022-10-03T09:57:23.223Z,18.15
2022-10-03T10:00:23.003Z,17.67
2022-10-03T10:03:00.989Z,17.45
2022-10-03T10:06:02.052Z,16.68
2022-10-03T10:08:56.451Z,16.32
2022-10-03T10:11:32.959Z,16.13
2022-10-03T10:14:16.248Z,16.08
2022-10-03T10:17:04.679Z,16.01
2022-10-03T10:19:37.390Z,15.55
2022-10-03T10:22:16.829Z,15.56
2022-10-03T10:25:00.793Z,15.63
2022-10-03T10:27:52.635Z,16.09
2022-10-03T10:30:37.480Z,16.18
2022-10-03T10:33:38.439Z,16.65
2022-10-03T10:36:42.904Z,19.68
2022-10-03T10:39:29.715Z,21.72
2022-10-03T10:42:00.185Z,21.03
2022-10-03T10:44:46.697Z,19.46
2022-10-03T10:47:34.894Z,18.70
2022-10-03T10:50:35.483Z,20.33
2022-10-03T10:53:40.245Z,21.42
2022-10-03T10:56:23.087Z,20.84
2022-10-03T10:59:32.873Z,19.35
2022-10-03T11:02:27.431Z,18.07
2022-10-03T11:05:34.371Z,18.00
2022-10-03T11:08:55.235Z,17.82
2022-10-03T11:12:02.382Z,17.60
2022-10-03T11:14:56.850Z,16.97
2022-10-03T11:17:35.697Z,16.83
2022-10-03T11:20:23.228Z,17.32
2022-10-03T11:23:03.847Z,17.61
2022-10-03T11:25:44.923Z,18.16
2022-10-03T11:28:30.159Z,17.90
2022-10-03T11:31:10.636Z,17.52
2022-10-03T11:33:52.385Z,17.74
2022-10-03T11:36:31.980Z,17.58
2022-10-03T11:39:06.898Z,17.99
2022-10-03T11:42:24.689Z,17.84
2022-10-03T11:44:57.192Z,17.68
2022-10-03T11:47:44.977Z,17.48
2022-10-03T11:50:39.165Z,17.14
2022-10-03T11:53:17.632Z,17.47
2022-10-03T11:56:07.678Z,17.59
2022-10-03T11:58:49.454Z,17.76
2022-10-03T12:01:21.841Z,17.85
2022-10-03T12:03:53.766Z,17.90
2022-10-03T12:06:56.305Z,17.98
2022-10-03T12:09:46.225Z,18.51
2022-10-03T12:12:31.426Z,18.24
2022-10-03T12:15:17.027Z,17.78
2022-10-03T12:17:50.329Z,17.71
2022-10-03T12:20:24.702Z,17.90
2022-10-03T12:22:56.730Z,18.12
2022-10-03T12:25:24.310Z,17.94
2022-10-03T12:28:02.588Z,17.80
2022-10-03T12:30:40.801Z,17.41
2022-10-03T12:33:43.375Z,17.25
2022-10-03T12:36:15.514Z,17.17
2022-10-03T12:38:51.994Z,16.93
2022-10-03T12:41:25.889Z,16.96
2022-10-03T12:44:14.474Z,16.92
2022-10-03T12:46:49.939Z,16.68
2022-10-03T12:49:20.873Z,16.74
2022-10-03T12:52:00.238Z,16.73
2022-10-03T12:54:45.585Z,16.77
2022-10-03T12:57:30.395Z,16.70
2022-10-03T13:00:15.816Z,16.79
2022-10-03T13:03:03.613Z,16.67
2022-10-03T13:05:43.182Z,16.65
2022-10-03T13:08:52.857Z,16.64
2022-10-03T13:11:19.273Z,16.65
2022-10-03T13:13:59.813Z,16.55
2022-10-03T13:16:42.278Z,16.56
2022-10-03T13:19:13.046Z,16.75
2022-10-03T13:22:03.636Z,16.64
2022-10-03T13:24:53.097Z,16.77
2022-10-03T13:27:37.951Z,16.73
2022-10-03T13:30:24.147Z,16.95
2022-10-03T13:33:12.003Z,17.53
2022-10-03T13:36:05.538Z,17.53
2022-10-03T13:38:56.914Z,17.70
2022-10-03T13:41:28.141Z,17.69
2022-10-03T13:44:06.221Z,17.71
2022-10-03T13:46:45.180Z,17.34
2022-10-03T13:49:18.963Z,16.93
2022-10-03T13:52:05.005Z,17.07
2022-10-03T13:55:17.903Z,16.80
2022-10-03T13:58:06.314Z,16.37
2022-10-03T14:00:48.725Z,16.39
2022-10-03T14:03:41.391Z,16.17
2022-10-03T14:06:26.682Z,15.76
2022-10-03T14:08:55.983Z,15.48
2022-10-03T14:11:47.831Z,15.21
2022-10-03T14:14:34.568Z,15.18
2022-10-03T14:17:09.223Z,15.05
2022-10-03T14:19:44.166Z,15.02
2022-10-03T14:22:26.085Z,15.09
2022-10-03T14:25:16.078Z,15.07
2022-10-03T14:27:50.939Z,15.10
2022-10-03T14:30:26.800Z,15.12
2022-10-03T14:33:17.131Z,15.30
2022-10-03T14:35:55.581Z,15.52
2022-10-03T14:38:55.549Z,15.59
2022-10-03T14:41:27.495Z,15.66
2022-10-03T14:43:57.076Z,15.78
2022-10-03T14:46:29.432Z,15.92
2022-10-03T14:48:59.712Z,15.97
2022-10-03T14:51:43.096Z,15.99
2022-10-03T14:54:22.843Z,15.86
2022-10-03T14:56:51.546Z,15.82
2022-10-03T14:59:22.696Z,15.90
2022-10-03T15:01:57.564Z,15.96
2022-10-03T15:04:29.384Z,15.85
2022-10-03T15:07:00.203Z,15.78
2022-10-03T15:09:38.908Z,15.74
2022-10-03T15:12:24.621Z,15.75
2022-10-03T15:15:12.049Z,15.58
2022-10-03T15:18:00.808Z,15.59
2022-10-03T15:20:32.198Z,15.59
2022-10-03T15:23:01.105Z,15.65
2022-10-03T15:25:31.002Z,15.68
2022-10-03T15:27:58.939Z,15.72
2022-10-03T15:30:34.148Z,15.69
2022-10-03T15:33:22.018Z,15.77
2022-10-03T15:35:53.567Z,15.93
2022-10-03T15:38:27.466Z,15.80
2022-10-03T15:41:08.220Z,15.72
2022-10-03T15:43:38.280Z,15.62
2022-10-03T15:46:14.055Z,15.50
2022-10-03T15:48:45.385Z,15.54
2022-10-03T15:51:23.056Z,15.49
2022-10-03T15:53:51.496Z,15.65
2022-10-03T15:56:23.928Z,15.60
2022-10-03T15:58:55.302Z,15.49
2022-10-03T16:01:38.652Z,15.42
2022-10-03T16:04:12.474Z,15.27
2022-10-03T16:06:47.880Z,15.09
2022-10-03T16:09:31.381Z,15.08
2022-10-03T16:12:04.977Z,15.09
2022-10-03T16:14:55.820Z,15.07
2022-10-03T16:17:29.091Z,15.03
2022-10-03T16:20:03.667Z,14.93
2022-10-03T16:22:37.311Z,14.95
2022-10-03T16:25:16.523Z,14.91
2022-10-03T16:27:52.057Z,14.94
2022-10-03T16:30:27.131Z,14.94
2022-10-03T16:33:17.234Z,14.82
2022-10-03T16:35:47.743Z,14.79
2022-10-03T16:38:20.859Z,14.81
2022-10-03T16:41:02.464Z,14.84
2022-10-03T16:43:31.407Z,14.84
2022-10-03T16:46:01.110Z,14.89
2022-10-03T16:48:48.495Z,14.89
2022-10-03T16:51:24.706Z,14.82
2022-10-03T16:53:55.897Z,14.85
2022-10-03T16:56:27.035Z,14.95
2022-10-03T16:58:55.609Z,14.91
2022-10-03T17:01:32.092Z,14.74
2022-10-03T17:04:15.719Z,14.42
2022-10-03T17:06:46.513Z,14.28
2022-10-03T17:09:28.723Z,14.05
2022-10-03T17:11:58.424Z,13.95
2022-10-03T17:14:29.233Z,13.94
2022-10-03T17:17:25.706Z,13.87
2022-10-03T17:20:05.163Z,13.79
2022-10-03T17:22:43.377Z,13.82
2022-10-03T17:25:18.981Z,13.83
2022-10-03T17:27:52.414Z,13.76
2022-10-03T17:30:32.914Z,13.69
2022-10-03T17:33:36.415Z,13.65
2022-10-03T17:36:29.242Z,13.69
2022-10-03T17:39:53.119Z,13.66
2022-10-03T17:42:45.105Z,13.65
2022-10-03T17:45:23.873Z,13.74
2022-10-03T17:47:56.089Z,13.74
2022-10-03T17:50:35.896Z,13.78
2022-10-03T17:53:02.608Z,13.75
2022-10-03T17:55:38.760Z,13.78
2022-10-03T17:58:07.844Z,13.77
2022-10-03T18:00:56.179Z,13.80
2022-10-03T18:03:27.186Z,13.74
2022-10-03T18:05:58.906Z,13.79
2022-10-03T18:08:30.576Z,13.81
2022-10-03T18:11:02.623Z,13.87
2022-10-03T18:13:37.621Z,13.88
2022-10-03T18:16:20.680Z,13.91
2022-10-03T18:19:04.635Z,13.86
2022-10-03T18:22:17.180Z,13.88
2022-10-03T18:25:22.530Z,13.89
2022-10-03T18:28:05.201Z,13.85
2022-10-03T18:30:45.553Z,13.81
2022-10-03T18:33:18.049Z,13.68
2022-10-03T18:35:49.352Z,13.71
2022-10-03T18:38:28.817Z,13.67
2022-10-03T18:40:58.856Z,13.65
2022-10-03T18:43:53.282Z,13.63
2022-10-03T18:46:54.781Z,13.65
2022-10-03T18:49:33.911Z,13.64
2022-10-03T18:52:20.671Z,13.75
2022-10-03T18:54:59.775Z,13.67
2022-10-03T18:57:38.951Z,13.70
2022-10-03T19:00:22.757Z,13.80
2022-10-03T19:03:25.065Z,13.71
2022-10-03T19:05:58.011Z,13.72
2022-10-03T19:08:37.910Z,13.72
2022-10-03T19:11:22.348Z,13.68
2022-10-03T19:14:11.729Z,13.73
2022-10-03T19:16:59.686Z,13.69
2022-10-03T19:19:42.106Z,13.75
2022-10-03T19:22:14.237Z,13.76
2022-10-03T19:24:57.857Z,13.63
2022-10-03T19:27:51.134Z,13.59
2022-10-03T19:30:21.856Z,13.59
2022-10-03T19:32:53.637Z,13.54
2022-10-03T19:35:23.873Z,13.63
2022-10-03T19:38:03.711Z,13.68
2022-10-03T19:40:55.428Z,13.65
2022-10-03T19:43:35.007Z,13.63
2022-10-03T19:46:18.485Z,13.57
2022-10-03T19:49:01.229Z,13.56
2022-10-03T19:51:28.359Z,13.59
2022-10-03T19:54:00.764Z,13.63
2022-10-03T19:56:31.383Z,13.56
2022-10-03T19:59:05.491Z,13.59
2022-10-03T20:01:55.063Z,13.67
2022-10-03T20:04:36.617Z,13.56
2022-10-03T20:07:10.745Z,13.60
2022-10-03T20:09:39.765Z,13.62
2022-10-03T20:12:12.518Z,13.64
2022-10-03T20:14:42.264Z,13.61
2022-10-03T20:17:20.088Z,13.61
2022-10-03T20:19:55.338Z,13.65
2022-10-03T20:22:27.718Z,13.58
2022-10-03T20:24:54.583Z,13.56
2022-10-03T20:27:39.375Z,13.57
2022-10-03T20:30:22.752Z,13.60
2022-10-03T20:32:49.709Z,13.72
2022-10-03T20:35:38.873Z,13.62
2022-10-03T20:38:16.958Z,13.74
2022-10-03T20:40:46.245Z,13.68
2022-10-03T20:43:25.186Z,13.69
2022-10-03T20:46:19.036Z,13.73
2022-10-03T20:49:01.736Z,13.69
2022-10-03T20:51:53.024Z,13.72
2022-10-03T20:54:21.856Z,13.72
2022-10-03T20:57:04.731Z,13.73
2022-10-03T20:59:46.546Z,13.75
2022-10-03T21:02:43.921Z,13.68
2022-10-03T21:05:35.496Z,13.77
2022-10-03T21:08:04.916Z,13.72
2022-10-03T21:10:35.988Z,13.72
2022-10-03T21:13:07.497Z,13.76
2022-10-03T21:15:47.185Z,13.75
2022-10-03T21:18:26.785Z,13.74
2022-10-03T21:21:10.259Z,13.80
2022-10-03T21:23:48.804Z,13.80
2022-10-03T21:26:30.219Z,13.74
2022-10-03T21:29:24.770Z,13.82
2022-10-03T21:31:58.155Z,13.92
2022-10-03T21:34:41.147Z,13.87
2022-10-03T21:37:27.717Z,13.84
2022-10-03T21:40:18.887Z,13.87
2022-10-03T21:42:53.491Z,13.88
2022-10-03T21:45:40.216Z,13.82
2022-10-03T21:48:44.279Z,13.81
2022-10-03T21:51:28.632Z,13.87
2022-10-03T21:54:16.726Z,13.84
2022-10-03T21:56:43.092Z,13.85
2022-10-03T21:59:18.580Z,13.82
2022-10-03T22:01:54.397Z,13.77
2022-10-03T22:04:25.172Z,13.86
2022-10-03T22:06:58.750Z,13.77
2022-10-03T22:09:25.334Z,13.79
2022-10-03T22:12:01.587Z,13.76
2022-10-03T22:14:44.074Z,13.78
2022-10-03T22:17:16.462Z,13.79
2022-10-03T22:20:08.049Z,13.89
2022-10-03T22:23:16.795Z,13.87
2022-10-03T22:26:05.570Z,13.84
2022-10-03T22:28:50.234Z,13.77
2022-10-03T22:31:25.829Z,13.79
2022-10-03T22:34:29.050Z,13.87
2022-10-03T22:36:56.108Z,13.89
2022-10-03T22:39:22.840Z,14.00
2022-10-03T22:41:54.121Z,13.92
2022-10-03T22:44:24.250Z,13.83
2022-10-03T22:46:52.808Z,13.85
2022-10-03T22:49:26.954Z,13.86
2022-10-03T22:51:54.779Z,13.89
2022-10-03T22:54:21.962Z,13.87
2022-10-03T22:56:56.107Z,13.86
2022-10-03T22:59:31.590Z,13.87
2022-10-03T23:02:04.740Z,13.88
2022-10-03T23:04:38.125Z,13.89
2022-10-03T23:07:32.612Z,13.91
2022-10-03T23:10:11.939Z,13.97
2022-10-03T23:13:16.027Z,13.90
2022-10-03T23:15:44.989Z,13.93
2022-10-03T23:18:31.182Z,13.88
2022-10-03T23:21:11.799Z,13.94
2022-10-03T23:24:04.065Z,13.94
2022-10-03T23:27:11.015Z,13.86
2022-10-03T23:29:37.545Z,13.73
2022-10-03T23:32:09.258Z,13.77
2022-10-03T23:34:35.879Z,13.81
2022-10-03T23:37:22.263Z,13.76
2022-10-03T23:39:59.142Z,13.80
2022-10-03T23:42:37.835Z,13.84
2022-10-03T23:45:07.410Z,13.79
2022-10-03T23:47:40.729Z,13.72
2022-10-03T23:50:08.960Z,13.69
2022-10-03T23:52:55.598Z,13.65
2022-10-03T23:55:25.267Z,13.64
2022-10-03T23:57:51.799Z,13.76
